Time;durP1;ratioP1;P1;durP2;ratioP2;P2;SDS_P1;SDS_P2;PMS_P1;PMS_P2;Temp;Humidity;BMP_temperature;BMP_pressure;BME280_temperature;BME280_humidity;BME280_pressure;Samples;Min_cycle;Max_cycle;Signal;HPM_P1;HPM_P2
2022/01/02 00:02:10;;;;;;;1.83;1.67;;;;;;;-17.69;90.33;101394.03;5031932;28;20111;-74
2022/01/02 00:04:45;;;;;;;1.73;1.63;;;;;;;-17.49;89.87;101392.91;5031833;28;20045;-74
2022/01/02 00:07:15;;;;;;;1.73;1.60;;;;;;;-17.46;89.70;101399.72;5031525;28;20045;-74
2022/01/02 00:09:45;;;;;;;3.95;2.50;;;;;;;-17.66;90.42;101395.84;5031511;28;20065;-74
2022/01/02 00:12:14;;;;;;;4.63;2.17;;;;;;;-17.69;89.83;101393.16;5031790;28;20072;-74
2022/01/02 00:14:44;;;;;;;1.70;1.60;;;;;;;-17.80;86.78;101389.94;5031938;28;20049;-75
2022/01/02 00:17:12;;;;;;;3.00;1.92;;;;;;;-18.06;90.04;101385.66;5031769;28;20045;-75
2022/01/02 00:19:46;;;;;;;1.30;1.30;;;;;;;-17.87;88.86;101390.31;5031645;28;20049;-74
2022/01/02 00:22:16;;;;;;;1.10;1.10;;;;;;;-17.67;81.73;101391.63;5031307;28;20046;-74
2022/01/02 00:24:44;;;;;;;1.40;1.40;;;;;;;-17.82;81.36;101384.03;5033375;28;20057;-73
2022/01/02 00:27:12;;;;;;;1.20;1.20;;;;;;;-18.25;80.61;101383.53;5035122;28;20100;-73
2022/01/02 00:29:40;;;;;;;1.10;1.10;;;;;;;-18.43;82.84;101377.25;5035029;28;20045;-73
2022/01/02 00:32:08;;;;;;;1.20;1.20;;;;;;;-18.45;83.99;101382.97;5035077;28;20049;-73
2022/01/02 00:34:36;;;;;;;1.38;1.38;;;;;;;-18.46;85.14;101388.69;5034582;28;20132;-73
2022/01/02 00:37:05;;;;;;;1.35;1.35;;;;;;;-18.53;84.66;101390.63;5034902;28;20056;-74
2022/01/02 00:39:32;;;;;;;1.50;1.50;;;;;;;-18.71;84.83;101383.59;5035046;28;20046;-73
2022/01/02 00:42:07;;;;;;;1.75;1.65;;;;;;;-18.88;84.70;101391.44;5034617;28;20045;-74
2022/01/02 00:44:43;;;;;;;1.70;1.60;;;;;;;-18.98;85.55;101387.47;5034832;28;20053;-75
2022/01/02 00:47:16;;;;;;;1.40;1.40;;;;;;;-19.13;88.16;101383.84;5034616;28;20049;-75
2022/01/02 00:49:57;;;;;;;2.05;1.50;;;;;;;-19.07;88.78;101378.47;5034949;28;20100;-75
2022/01/02 00:52:27;;;;;;;1.98;1.70;;;;;;;-18.84;88.51;101371.09;5034725;28;20045;-76
2022/01/02 00:54:56;;;;;;;1.90;1.80;;;;;;;-18.91;89.53;101371.38;5034479;28;20052;-76
2022/01/02 00:57:34;;;;;;;2.22;2.03;;;;;;;-18.69;91.19;101364.72;5034468;28;20089;-76
2022/01/02 01:00:07;;;;;;;2.58;2.38;;;;;;;-18.57;91.23;101371.28;5034272;28;20046;-75
2022/01/02 01:02:36;;;;;;;1.70;1.60;;;;;;;-18.58;90.27;101365.47;5034340;28;20389;-76
2022/01/02 01:05:05;;;;;;;1.15;1.15;;;;;;;-18.13;87.45;101364.53;5034575;28;20053;-75
2022/01/02 01:07:35;;;;;;;1.05;1.05;;;;;;;-18.03;83.65;101361.03;5034655;28;20045;-75
2022/01/02 01:10:03;;;;;;;3.08;1.90;;;;;;;-18.32;83.67;101362.34;5033934;28;20080;-75
2022/01/02 01:12:31;;;;;;;2.60;2.40;;;;;;;-18.70;86.09;101367.97;5034499;28;20438;-75
2022/01/02 01:14:58;;;;;;;6.18;1.90;;;;;;;-18.93;87.73;101362.97;5034397;28;20052;-76
2022/01/02 01:17:25;;;;;;;;;;;;;;;-19.13;86.29;101356.56;5034630;28;20436;-76
2022/01/02 01:19:53;;;;;;;1.70;1.60;;;;;;;-19.17;87.84;101357.09;5034076;28;20023;-75
2022/01/02 01:22:20;;;;;;;1.70;1.50;;;;;;;-18.97;87.12;101353.59;5033964;28;20053;-76
2022/01/02 01:24:48;;;;;;;1.40;1.40;;;;;;;-19.02;87.84;101354.88;5033814;28;20049;-76
2022/01/02 01:27:15;;;;;;;1.35;1.33;;;;;;;-18.97;88.16;101347.00;5033972;28;20045;-76
2022/01/02 01:29:42;;;;;;;1.75;1.65;;;;;;;-18.39;85.52;101352.78;5034052;28;20050;-76
2022/01/02 01:32:10;;;;;;;1.00;1.00;;;;;;;-18.29;82.63;101352.63;5033886;28;20045;-76
2022/01/02 01:34:37;;;;;;;1.08;1.08;;;;;;;-18.61;81.38;101355.34;5033177;28;20057;-76
2022/01/02 01:37:04;;;;;;;1.50;1.40;;;;;;;-18.90;81.17;101350.81;5033749;28;20045;-76
2022/01/02 01:39:31;;;;;;;1.40;1.40;;;;;;;-19.14;81.46;101363.13;5034234;28;20060;-75
2022/01/02 01:42:07;;;;;;;;;;;;;;;-19.47;82.00;101361.47;5034259;28;20060;-74
2022/01/02 01:45:02;;;;;;;1.30;1.30;;;;;;;-19.52;83.44;101351.97;5033646;28;20386;-75
2022/01/02 01:47:29;;;;;;;1.20;1.20;;;;;;;-19.42;84.34;101347.81;5033303;28;20107;-76
2022/01/02 01:49:55;;;;;;;;;;;;;;;-19.21;85.29;101353.53;5033753;28;20407;-76
2022/01/02 01:52:22;;;;;;;;;;;;;;;-19.19;84.41;101358.59;5033749;28;20390;-76
2022/01/02 01:54:48;;;;;;;;;;;;;;;-19.24;84.30;101355.75;5034061;28;19921;-75
2022/01/02 01:57:16;;;;;;;;;;;;;;;-19.80;84.82;101364.81;5034085;28;20348;-75
2022/01/02 01:59:46;;;;;;;1.23;1.23;;;;;;;-19.69;85.82;101354.09;5033248;28;19936;-75
2022/01/02 02:02:14;;;;;;;1.30;1.30;;;;;;;-19.51;85.05;101342.19;5033159;28;20404;-75
2022/01/02 02:04:41;;;;;;;1.30;1.30;;;;;;;-20.01;86.17;101339.25;5033402;28;20053;-75
2022/01/02 02:07:08;;;;;;;2.10;2.00;;;;;;;-19.78;86.70;101326.16;5033270;28;20045;-75
2022/01/02 02:09:49;;;;;;;1.40;1.30;;;;;;;-19.23;85.09;101319.44;5032786;28;20415;-75
2022/01/02 02:12:18;;;;;;;1.70;1.60;;;;;;;-19.26;84.67;101321.69;5033158;28;20045;-74
2022/01/02 02:14:45;;;;;;;1.58;1.52;;;;;;;-19.22;84.25;101311.25;5032981;28;20045;-75
2022/01/02 02:17:12;;;;;;;1.70;1.63;;;;;;;-19.17;83.56;101303.38;5032888;28;20046;-76
2022/01/02 02:19:39;;;;;;;2.05;1.90;;;;;;;-19.80;85.57;101300.41;5032818;28;20065;-75
2022/01/02 02:22:08;;;;;;;1.52;1.42;;;;;;;-19.25;84.57;101289.56;5032921;28;20041;-75
2022/01/02 02:24:35;;;;;;;1.30;1.30;;;;;;;-19.13;84.28;101292.09;5032690;28;20084;-75
2022/01/02 02:27:02;;;;;;;1.20;1.20;;;;;;;-19.13;84.75;101283.03;5032857;28;20050;-75
2022/01/02 02:29:29;;;;;;;;;;;;;;;-19.14;85.03;101282.91;5033007;28;20056;-75
2022/01/02 02:31:56;;;;;;;;;;;;;;;-19.38;86.76;101267.13;5033326;28;19921;-75
2022/01/02 02:34:23;;;;;;;1.10;1.10;;;;;;;-19.43;87.07;101261.81;5032653;28;19928;-75
2022/01/02 02:36:50;;;;;;;1.88;1.77;;;;;;;-19.26;86.20;101250.66;5032712;28;20049;-76
2022/01/02 02:39:18;;;;;;;1.23;1.23;;;;;;;-19.24;85.22;101248.25;5033126;28;20500;-75
2022/01/02 02:41:45;;;;;;;1.42;1.42;;;;;;;-19.02;83.94;101240.75;5032484;28;20056;-75
2022/01/02 02:44:21;;;;;;;1.98;1.88;;;;;;;-19.27;83.05;101239.00;5032471;28;20377;-75
2022/01/02 02:49:32;;;;;;;2.05;1.95;;;;;;;-19.19;83.52;101234.56;5032492;28;20064;-75
2022/01/02 02:52:04;;;;;;;1.52;1.50;;;;;;;-19.14;82.14;101244.06;5032413;28;20056;-75
2022/01/02 02:54:33;;;;;;;1.77;1.65;;;;;;;-19.41;82.25;101239.63;5032470;28;20472;-76
2022/01/02 02:57:01;;;;;;;1.30;1.30;;;;;;;-19.46;83.97;101244.25;5032501;28;20128;-75
2022/01/02 02:59:29;;;;;;;2.15;1.55;;;;;;;-19.55;85.52;101246.03;5032151;28;20046;-76
2022/01/02 03:01:57;;;;;;;1.70;1.60;;;;;;;-19.20;85.38;101245.25;5032243;28;20073;-75
2022/01/02 03:04:24;;;;;;;1.88;1.77;;;;;;;-19.12;85.67;101240.09;5032074;28;20045;-76
2022/01/02 03:06:52;;;;;;;1.98;1.88;;;;;;;-19.06;85.98;101236.31;5032208;28;20435;-77
2022/01/02 03:09:36;;;;;;;2.08;1.50;;;;;;;-19.27;87.13;101235.66;5031901;28;20064;-76
2022/01/02 03:12:05;;;;;;;3.80;1.73;;;;;;;-19.26;87.55;101227.44;5032443;28;20054;-76
2022/01/02 03:14:32;;;;;;;3.25;1.90;;;;;;;-19.33;87.79;101236.94;5032116;28;20053;-76
2022/01/02 03:16:59;;;;;;;;;;;;;;;-19.34;88.44;101232.75;5032452;28;20104;-76
2022/01/02 03:19:26;;;;;;;;;;;;;;;-19.34;88.48;101227.78;5032398;28;20272;-76
2022/01/02 03:21:52;;;;;;;1.40;1.40;;;;;;;-19.34;89.12;101226.91;5032122;28;20279;-76
2022/01/02 03:24:19;;;;;;;1.70;1.38;;;;;;;-19.30;89.52;101210.63;5032302;28;20049;-76
2022/01/02 03:26:46;;;;;;;1.63;1.58;;;;;;;-19.16;88.93;101225.75;5032126;28;20057;-76
2022/01/02 03:29:14;;;;;;;1.83;1.73;;;;;;;-19.07;87.72;101212.28;5031683;28;20053;-76
2022/01/02 03:31:41;;;;;;;2.25;1.95;;;;;;;-19.08;87.67;101213.91;5031846;28;20049;-76
2022/01/02 03:34:08;;;;;;;1.83;1.73;;;;;;;-19.12;86.02;101207.84;5032206;28;20041;-76
2022/01/02 03:36:35;;;;;;;1.20;1.20;;;;;;;-19.05;84.44;101214.13;5032166;28;20037;-76
2022/01/02 03:39:02;;;;;;;1.30;1.30;;;;;;;-18.91;82.80;101202.66;5032467;28;20055;-75
2022/01/02 03:41:29;;;;;;;2.28;2.08;;;;;;;-19.04;82.01;101217.44;5031856;28;20053;-75
2022/01/02 03:43:56;;;;;;;2.13;1.98;;;;;;;-19.28;82.19;101221.53;5031941;28;20045;-75
2022/01/02 03:46:25;;;;;;;3.05;1.88;;;;;;;-19.25;83.50;101216.78;5031975;28;20046;-75
2022/01/02 03:48:52;;;;;;;1.40;1.40;;;;;;;-19.26;83.76;101215.94;5032074;28;20056;-75
2022/01/02 03:51:19;;;;;;;1.30;1.30;;;;;;;-19.25;84.26;101225.09;5031956;28;20048;-75
2022/01/02 03:53:46;;;;;;;1.23;1.23;;;;;;;-19.18;85.05;101229.75;5031966;28;20053;-75
2022/01/02 03:56:12;;;;;;;1.60;1.50;;;;;;;-19.21;85.87;101224.56;5031695;28;20476;-76
2022/01/02 03:58:39;;;;;;;1.27;1.27;;;;;;;-19.47;86.82;101211.91;5033461;28;20488;-76
2022/01/02 04:01:06;;;;;;;1.80;1.63;;;;;;;-19.52;88.05;101213.19;5035667;28;20400;-76
2022/01/02 04:03:34;;;;;;;1.10;1.10;;;;;;;-19.18;87.43;101219.81;5035748;28;20052;-76
2022/01/02 04:06:01;;;;;;;1.70;1.60;;;;;;;-18.77;87.83;101218.53;5035628;28;20045;-76
2022/01/02 04:08:28;;;;;;;1.67;1.58;;;;;;;-18.67;86.20;101229.19;5035132;28;20431;-75
2022/01/02 04:10:55;;;;;;;1.70;1.60;;;;;;;-18.74;86.70;101239.44;5035468;28;20049;-75
2022/01/02 04:13:22;;;;;;;1.30;1.30;;;;;;;-18.81;87.36;101239.78;5035604;28;20050;-75
2022/01/02 04:15:49;;;;;;;1.10;1.10;;;;;;;-18.76;87.63;101240.97;5035658;28;20045;-76
2022/01/02 04:18:16;;;;;;;2.13;2.03;;;;;;;-19.11;87.37;101235.97;5035369;28;20042;-76
2022/01/02 04:20:44;;;;;;;1.40;1.40;;;;;;;-19.19;88.20;101227.13;5035441;28;20045;-76
2022/01/02 04:23:11;;;;;;;1.98;1.77;;;;;;;-19.23;88.30;101218.63;5035388;28;20053;-76
2022/01/02 04:25:38;;;;;;;2.25;2.03;;;;;;;-19.25;88.84;101214.31;5035347;28;20041;-76
2022/01/02 04:28:05;;;;;;;1.52;1.50;;;;;;;-19.29;88.92;101218.16;5034958;28;20079;-76
2022/01/02 04:30:31;;;;;;;1.35;1.30;;;;;;;-19.26;88.96;101218.41;5035166;28;20049;-76
2022/01/02 04:32:58;;;;;;;2.78;1.73;;;;;;;-19.09;89.23;101212.16;5034967;28;20080;-76
2022/01/02 04:35:25;;;;;;;;;;;;;;;-18.92;89.24;101211.75;5035461;28;20096;-76
2022/01/02 04:37:54;;;;;;;1.63;1.52;;;;;;;-18.98;88.06;101213.78;5034954;28;20290;-76
2022/01/02 04:40:21;;;;;;;1.63;1.52;;;;;;;-18.78;86.96;101207.72;5047708;22;20046;-68
2022/01/02 04:42:48;;;;;;;1.50;1.40;;;;;;;-18.70;86.72;101211.59;5034850;28;20053;-69
2022/01/02 04:45:15;;;;;;;2.13;1.90;;;;;;;-18.74;86.13;101192.28;5034721;28;20049;-68
2022/01/02 04:47:42;;;;;;;2.40;1.58;;;;;;;-19.00;85.22;101189.63;5034745;28;20049;-68
2022/01/02 04:50:09;;;;;;;1.55;1.45;;;;;;;-19.14;85.65;101179.59;5034907;28;20053;-69
2022/01/02 04:52:36;;;;;;;1.55;1.45;;;;;;;-19.15;86.50;101172.91;5034684;28;20052;-70
2022/01/02 04:55:06;;;;;;;1.80;1.70;;;;;;;-19.16;88.42;101168.72;5034683;28;20502;-69
2022/01/02 04:57:34;;;;;;;1.10;1.10;;;;;;;-19.01;88.99;101166.41;5034540;28;20042;-69
2022/01/02 05:00:01;;;;;;;1.60;1.50;;;;;;;-18.84;86.76;101174.19;5034127;28;20456;-70
2022/01/02 05:02:27;;;;;;;1.30;1.30;;;;;;;-18.57;86.51;101175.19;5034568;28;20041;-71
2022/01/02 05:04:54;;;;;;;2.28;2.08;;;;;;;-18.66;84.30;101183.72;5034465;28;20057;-68
2022/01/02 05:07:21;;;;;;;1.70;1.60;;;;;;;-19.01;85.64;101173.00;5034301;28;20067;-69
2022/01/02 05:09:48;;;;;;;1.48;1.48;;;;;;;-18.86;87.73;101168.25;5033452;28;20049;-68
2022/01/02 05:12:16;;;;;;;4.55;4.22;;;;;;;-18.61;88.40;101159.22;5034259;28;20060;-70
2022/01/02 05:14:43;;;;;;;1.65;1.55;;;;;;;-18.47;88.32;101166.00;5034539;28;20404;-71
2022/01/02 05:17:10;;;;;;;1.30;1.30;;;;;;;-18.36;88.76;101154.31;5034327;28;20484;-68
2022/01/02 05:19:37;;;;;;;;;;;;;;;-18.39;88.97;101154.09;5034520;28;20404;-68
2022/01/02 05:22:04;;;;;;;;;;;;;;;-18.25;88.46;101152.53;5034500;28;19921;-68
2022/01/02 05:24:30;;;;;;;;;;;;;;;-18.20;87.89;101148.72;5034572;28;19928;-64
2022/01/02 05:26:57;;;;;;;1.40;1.40;;;;;;;-18.43;88.45;101137.25;5034131;28;19920;-70
2022/01/02 05:29:26;;;;;;;1.40;1.40;;;;;;;-18.42;89.06;101131.53;5033914;28;20049;-69
2022/01/02 05:31:52;;;;;;;1.13;1.13;;;;;;;-17.99;89.14;101131.88;5033862;28;20045;-71
2022/01/02 05:34:19;;;;;;;2.53;2.35;;;;;;;-17.95;89.32;101126.38;5033794;28;20046;-69
2022/01/02 05:36:48;;;;;;;1.88;1.30;;;;;;;-17.98;89.56;101128.63;5033883;28;20052;-63
2022/01/02 05:39:17;;;;;;;1.70;1.60;;;;;;;-17.85;88.50;101126.19;5046099;22;20045;-75
2022/01/02 05:41:44;;;;;;;1.83;1.73;;;;;;;-17.67;88.44;101120.63;5033818;28;20049;-74
2022/01/02 05:44:11;;;;;;;2.17;1.45;;;;;;;-17.66;88.37;101109.94;5033542;28;20503;-76
2022/01/02 05:46:39;;;;;;;1.67;1.63;;;;;;;-17.54;87.94;101112.34;5033551;28;20046;-75
2022/01/02 05:49:06;;;;;;;1.50;1.40;;;;;;;-17.54;87.70;101109.84;5033305;28;20053;-75
2022/01/02 05:51:33;;;;;;;2.30;1.77;;;;;;;-17.77;88.31;101094.34;5033364;28;20476;-75
2022/01/02 05:54:00;;;;;;;1.95;1.80;;;;;;;-17.87;89.37;101085.47;5033481;28;20488;-75
2022/01/02 05:56:27;;;;;;;1.10;1.10;;;;;;;-17.63;89.96;101080.31;5033287;28;20050;-74
2022/01/02 05:58:54;;;;;;;1.75;1.65;;;;;;;-17.48;89.26;101070.47;5033090;28;20060;-75
2022/01/02 06:01:21;;;;;;;1.50;1.50;;;;;;;-17.39;88.12;101061.94;5033382;28;20526;-75
2022/01/02 06:03:49;;;;;;;1.27;1.27;;;;;;;-17.16;87.26;101055.00;5033235;28;20072;-75
2022/01/02 06:06:16;;;;;;;1.95;1.85;;;;;;;-17.12;87.30;101059.41;5033556;28;20064;-75
2022/01/02 06:08:43;;;;;;;;;;;;;;;-17.16;87.33;101058.38;5033546;28;20064;-75
2022/01/02 06:11:10;;;;;;;1.83;1.73;;;;;;;-17.26;89.05;101058.59;5033171;28;19943;-75
2022/01/02 06:13:36;;;;;;;;;;;;;;;-17.12;88.19;101050.31;5033402;28;20049;-75
2022/01/02 06:16:03;;;;;;;;;;;;;;;-17.10;88.66;101052.06;5033618;28;19921;-75
2022/01/02 06:18:30;;;;;;;;;;;;;;;-17.20;89.17;101048.16;5033283;28;19921;-75
2022/01/02 06:20:58;;;;;;;1.58;1.48;;;;;;;-17.19;89.41;101043.25;5032970;28;19928;-75
2022/01/02 06:23:25;;;;;;;1.70;1.60;;;;;;;-17.08;89.32;101043.94;5032998;28;20045;-74
2022/01/02 06:25:52;;;;;;;1.23;1.23;;;;;;;-17.13;89.13;101037.81;5033063;28;20052;-75
2022/01/02 06:28:19;;;;;;;1.50;1.40;;;;;;;-16.93;89.87;101038.97;5032719;28;20500;-75
2022/01/02 06:30:46;;;;;;;1.58;1.45;;;;;;;-16.99;90.21;101037.00;5032850;28;20423;-75
2022/01/02 06:33:13;;;;;;;1.23;1.23;;;;;;;-17.08;90.51;101020.66;5033046;28;20041;-74
2022/01/02 06:35:40;;;;;;;6.00;1.75;;;;;;;-17.13;91.21;101025.38;5032731;28;20049;-74
2022/01/02 06:38:18;;;;;;;1.92;1.83;;;;;;;-16.89;89.77;101016.00;5032669;28;20484;-74
2022/01/02 06:40:45;;;;;;;2.03;1.90;;;;;;;-16.80;89.64;101020.66;5032562;28;20148;-74
2022/01/02 06:43:13;;;;;;;;;;;;;;;-16.88;90.88;101024.31;5033022;28;20041;-74
2022/01/02 06:45:40;;;;;;;1.10;1.10;;;;;;;-16.93;90.48;101014.09;5032430;28;20024;-75
2022/01/02 06:48:07;;;;;;;2.38;1.75;;;;;;;-16.76;90.09;101012.56;5032349;28;20455;-75
2022/01/02 06:50:34;;;;;;;1.85;1.60;;;;;;;-16.62;90.52;101006.75;5032603;28;20058;-76
2022/01/02 06:53:01;;;;;;;1.40;1.30;;;;;;;-16.68;90.37;100999.78;5032647;28;20046;-76
2022/01/02 06:55:29;;;;;;;1.70;1.60;;;;;;;-16.63;90.13;101002.56;5032448;28;20041;-76
2022/01/02 06:57:56;;;;;;;1.35;1.27;;;;;;;-16.77;90.37;100999.28;5032279;28;20518;-75
2022/01/02 07:00:23;;;;;;;2.35;1.67;;;;;;;-16.59;90.54;101001.09;5032172;28;20045;-75
2022/01/02 07:02:50;;;;;;;1.67;1.58;;;;;;;-16.37;89.06;100998.22;5032364;28;20380;-75
2022/01/02 07:05:17;;;;;;;1.70;1.60;;;;;;;-16.54;89.57;100995.63;5032442;28;20049;-75
2022/01/02 07:07:45;;;;;;;1.45;1.33;;;;;;;-16.65;89.23;100989.16;5032345;28;20045;-76
2022/01/02 07:10:14;;;;;;;1.65;1.55;;;;;;;-16.60;89.47;100982.81;5032043;28;20408;-75
2022/01/02 07:12:43;;;;;;;1.40;1.30;;;;;;;-16.46;89.53;100981.13;5032143;28;20053;-75
2022/01/02 07:15:11;;;;;;;1.40;1.30;;;;;;;-16.32;89.10;100977.75;5032292;28;20060;-74
2022/01/02 07:17:38;;;;;;;1.17;1.17;;;;;;;-16.32;90.26;100972.78;5032012;28;20049;-75
2022/01/02 07:20:06;;;;;;;1.52;1.42;;;;;;;-16.27;90.10;100970.56;5032293;28;20041;-75
2022/01/02 07:22:33;;;;;;;1.10;1.10;;;;;;;-16.04;89.18;100960.22;5032177;28;20048;-75
2022/01/02 07:25:00;;;;;;;1.63;1.52;;;;;;;-15.92;89.16;100960.06;5032153;28;20049;-75
2022/01/02 07:27:27;;;;;;;1.20;1.20;;;;;;;-15.87;89.52;100957.81;5032318;28;20053;-75
2022/01/02 07:29:56;;;;;;;1.00;1.00;;;;;;;-15.94;88.88;100963.25;5032003;28;20045;-75
2022/01/02 07:32:23;;;;;;;1.30;1.30;;;;;;;-15.91;89.22;100954.28;5032260;28;20052;-74
2022/01/02 07:34:50;;;;;;;1.00;1.00;;;;;;;-15.83;89.12;100954.69;5035768;28;20416;-75
2022/01/02 07:37:17;;;;;;;1.55;1.45;;;;;;;-15.93;89.33;100952.47;5035781;28;20045;-75
2022/01/02 07:39:44;;;;;;;1.25;1.25;;;;;;;-15.73;89.58;100948.56;5036155;28;20053;-74
2022/01/02 07:42:11;;;;;;;1.50;1.40;;;;;;;-15.78;89.50;100945.81;5035838;28;20053;-75
2022/01/02 07:44:38;;;;;;;;;;;;;;;-15.66;90.23;100941.47;5036481;28;20052;-75
2022/01/02 07:47:07;;;;;;;;;;;;;;;-15.66;89.87;100946.47;5036340;28;20291;-75
2022/01/02 07:49:33;;;;;;;1.35;1.35;;;;;;;-15.62;90.46;100938.34;5035516;28;19928;-75
2022/01/02 07:52:00;;;;;;;1.10;1.10;;;;;;;-15.56;90.46;100947.81;5035652;28;20065;-75
2022/01/02 07:54:27;;;;;;;1.38;1.27;;;;;;;-15.59;90.36;100945.13;5036025;28;20049;-75
2022/01/02 07:56:55;;;;;;;;;;;;;;;-15.71;91.18;100947.03;5036057;28;20060;-74
2022/01/02 07:59:22;;;;;;;1.55;1.40;;;;;;;-15.72;90.64;100946.19;5035508;28;19921;-76
2022/01/02 08:01:49;;;;;;;1.00;1.00;;;;;;;-15.55;90.81;100941.19;5035317;28;20041;-75
2022/01/02 08:04:18;;;;;;;1.90;1.77;;;;;;;-15.52;89.75;100942.19;5035417;28;20050;-75
2022/01/02 08:06:45;;;;;;;1.48;1.38;;;;;;;-15.42;89.66;100939.41;5035308;28;20052;-74
2022/01/02 08:09:12;;;;;;;1.13;1.08;;;;;;;-15.31;89.68;100952.44;5035207;28;20064;-74
2022/01/02 08:11:39;;;;;;;1.25;1.20;;;;;;;-15.52;89.26;100944.69;5035383;28;20487;-74
2022/01/02 08:14:07;;;;;;;1.23;1.23;;;;;;;-15.27;89.86;100941.84;5035356;28;20057;-74
2022/01/02 08:16:34;;;;;;;1.42;1.33;;;;;;;-15.30;89.78;100946.69;5035149;28;20446;-74
2022/01/02 08:19:01;;;;;;;1.48;1.38;;;;;;;-15.31;89.20;100939.94;5035074;28;20053;-75
2022/01/02 08:21:29;;;;;;;1.58;1.45;;;;;;;-15.43;89.07;100937.69;5035282;28;20053;-74
2022/01/02 08:23:56;;;;;;;1.50;1.40;;;;;;;-15.37;90.30;100933.00;5035292;28;20480;-76
2022/01/02 08:26:23;;;;;;;1.13;1.13;;;;;;;-15.31;90.33;100937.47;5035367;28;20061;-75
2022/01/02 08:28:50;;;;;;;;;;;;;;;-15.30;89.29;100930.84;5035559;28;20054;-75
2022/01/02 08:31:17;;;;;;;1.40;1.30;;;;;;;-15.25;89.90;100926.97;5034914;28;19928;-74
2022/01/02 08:33:44;;;;;;;6.97;2.35;;;;;;;-15.26;89.80;100932.72;5034863;28;20049;-74
2022/01/02 08:36:11;;;;;;;1.40;1.30;;;;;;;-15.33;90.47;100921.56;5034802;28;20068;-74
2022/01/02 08:38:39;;;;;;;1.13;1.13;;;;;;;-15.32;89.73;100924.91;5035066;28;20412;-74
2022/01/02 08:41:06;;;;;;;1.42;1.33;;;;;;;-15.31;90.49;100927.47;5034874;28;20048;-74
2022/01/02 08:43:34;;;;;;;1.30;1.20;;;;;;;-15.33;90.29;100920.69;5034766;28;20054;-74
2022/01/02 08:46:01;;;;;;;1.20;1.20;;;;;;;-15.33;90.60;100921.56;5033528;28;20137;-74
2022/01/02 08:48:28;;;;;;;1.33;1.33;;;;;;;-15.33;90.73;100923.19;5034553;28;20049;-74
2022/01/02 08:50:55;;;;;;;1.30;1.30;;;;;;;-15.30;90.85;100924.22;5034850;28;20050;-74
2022/01/02 08:53:22;;;;;;;1.10;1.10;;;;;;;-15.26;90.17;100928.56;5034779;28;20049;-74
2022/01/02 08:55:50;;;;;;;2.78;2.50;;;;;;;-15.39;89.98;100933.72;5034473;28;20580;-74
2022/01/02 08:58:17;;;;;;;1.17;1.17;;;;;;;-15.26;90.16;100923.56;5034612;28;20049;-74
2022/01/02 09:00:44;;;;;;;1.20;1.20;;;;;;;-15.28;90.05;100927.66;5034214;28;20407;-75
2022/01/02 09:03:10;;;;;;;1.10;1.10;;;;;;;-15.31;90.48;100932.47;5034253;28;20353;-74
2022/01/02 09:05:37;;;;;;;2.08;1.98;;;;;;;-15.29;90.45;100920.94;5034503;28;20053;-73
2022/01/02 09:08:05;;;;;;;1.25;1.25;;;;;;;-15.23;90.94;100920.38;5034541;28;20053;-74
2022/01/02 09:10:32;;;;;;;3.42;1.40;;;;;;;-15.17;90.41;100920.72;5034052;28;20049;-75
2022/01/02 09:13:00;;;;;;;1.33;1.23;;;;;;;-15.15;89.97;100905.03;5034522;28;20058;-73
2022/01/02 09:15:27;;;;;;;1.52;1.42;;;;;;;-15.22;90.53;100904.66;5034133;28;20045;-74
2022/01/02 09:17:54;;;;;;;1.33;1.30;;;;;;;-15.19;90.58;100904.78;5033925;28;20056;-73
2022/01/02 09:20:21;;;;;;;1.23;1.13;;;;;;;-15.11;90.20;100898.53;5033985;28;20045;-73
2022/01/02 09:22:48;;;;;;;1.88;1.63;;;;;;;-14.94;90.17;100896.91;5033929;28;20046;-73
2022/01/02 09:25:15;;;;;;;1.60;1.50;;;;;;;-14.95;89.33;100901.06;5034161;28;20048;-75
2022/01/02 09:27:42;;;;;;;1.55;1.45;;;;;;;-14.97;89.97;100905.09;5034017;28;20396;-74
2022/01/02 09:30:11;;;;;;;2.10;1.90;;;;;;;-14.99;90.29;100889.19;5033709;28;20488;-75
2022/01/02 09:32:39;;;;;;;3.63;1.60;;;;;;;-15.08;90.07;100885.38;5033774;28;20053;-74
2022/01/02 09:35:09;;;;;;;1.25;1.23;;;;;;;-14.93;90.46;100886.13;5033863;28;20049;-74
2022/01/02 09:37:36;;;;;;;1.50;1.40;;;;;;;-14.79;89.93;100887.69;5034036;28;20507;-74
2022/01/02 09:40:04;;;;;;;;;;;;;;;-14.76;89.85;100889.47;5034374;28;20053;-74
2022/01/02 09:42:32;;;;;;;1.45;1.38;;;;;;;-14.77;90.15;100886.13;5034165;28;19921;-75
2022/01/02 09:44:59;;;;;;;1.65;1.55;;;;;;;-14.79;90.28;100886.81;5033868;28;20049;-75
2022/01/02 09:47:27;;;;;;;1.40;1.30;;;;;;;-14.83;90.38;100893.28;5033480;28;20041;-75
2022/01/02 09:49:56;;;;;;;1.98;1.52;;;;;;;-14.72;89.96;100887.19;5033472;28;20072;-74
2022/01/02 09:52:23;;;;;;;2.13;1.63;;;;;;;-14.61;89.94;100879.38;5033519;28;20127;-73
2022/01/02 09:54:50;;;;;;;2.92;2.70;;;;;;;-14.55;90.06;100878.00;5033225;28;20049;-74
2022/01/02 09:57:17;;;;;;;1.10;1.10;;;;;;;-14.59;90.34;100875.28;5032841;28;20046;-73
2022/01/02 09:59:44;;;;;;;1.45;1.40;;;;;;;-14.45;89.96;100868.44;5033504;28;20042;-75
2022/01/02 10:02:11;;;;;;;1.20;1.20;;;;;;;-14.43;89.79;100866.88;5033280;28;20045;-74
2022/01/02 10:04:41;;;;;;;2.45;1.80;;;;;;;-14.50;89.75;100861.56;5033254;28;20055;-75
2022/01/02 10:07:26;;;;;;;1.40;1.30;;;;;;;-14.41;89.70;100853.66;5032993;28;20064;-75
2022/01/02 10:09:53;;;;;;;2.35;2.05;;;;;;;-14.45;89.98;100851.78;5033012;28;20476;-75
2022/01/02 10:12:26;;;;;;;1.73;1.40;;;;;;;-14.44;90.46;100847.63;5033139;28;20069;-75
2022/01/02 10:15:13;;;;;;;1.73;1.63;;;;;;;-14.39;89.61;100839.56;5032932;28;20049;-74
2022/01/02 10:17:58;;;;;;;2.00;1.90;;;;;;;-14.36;89.61;100827.22;5033097;28;20045;-75
2022/01/02 10:20:28;;;;;;;1.45;1.35;;;;;;;-14.33;89.62;100829.00;5032305;28;20503;-73
2022/01/02 10:23:10;;;;;;;2.00;1.77;;;;;;;-14.45;90.10;100816.81;5033043;28;20049;-74
2022/01/02 10:25:42;;;;;;;1.27;1.27;;;;;;;-14.42;89.92;100814.44;5032571;28;20045;-74
2022/01/02 10:28:25;;;;;;;1.70;1.60;;;;;;;-14.38;90.34;100816.31;5032515;28;20049;-74
2022/01/02 10:30:54;;;;;;;1.92;1.83;;;;;;;-14.37;90.19;100817.16;5032446;28;20060;-72
2022/01/02 10:33:21;;;;;;;1.48;1.38;;;;;;;-14.33;90.29;100814.00;5032589;28;20057;-76
2022/01/02 10:35:56;;;;;;;2.20;1.88;;;;;;;-14.29;89.73;100816.72;5032694;28;20518;-77
2022/01/02 10:38:23;;;;;;;1.75;1.65;;;;;;;-14.39;90.05;100814.56;5032491;28;20054;-77
2022/01/02 10:40:50;;;;;;;4.78;1.92;;;;;;;-14.41;90.17;100813.66;5032507;28;20053;-74
2022/01/02 10:43:29;;;;;;;1.20;1.20;;;;;;;-14.39;90.63;100812.06;5032870;28;20404;-74
2022/01/02 10:45:57;;;;;;;4.22;2.13;;;;;;;-14.41;89.92;100803.69;5032540;28;20060;-76
2022/01/02 10:48:36;;;;;;;1.95;1.83;;;;;;;-14.43;90.29;100807.75;5032413;28;20045;-74
2022/01/02 10:51:07;;;;;;;4.00;3.13;;;;;;;-14.31;89.70;100804.94;5032397;28;20052;-75
2022/01/02 10:53:36;;;;;;;10.15;2.45;;;;;;;-14.12;90.20;100802.50;5032438;28;20075;-76
2022/01/02 10:56:04;;;;;;;5.93;4.30;;;;;;;-14.07;89.85;100798.56;5032389;28;20407;-74
2022/01/02 10:58:33;;;;;;;8.00;3.70;;;;;;;-14.13;89.81;100793.25;5032645;28;20064;-76
2022/01/02 11:01:05;;;;;;;10.15;5.50;;;;;;;-14.15;89.88;100788.97;5032186;28;20499;-74
2022/01/02 11:03:32;;;;;;;5.55;3.63;;;;;;;-14.25;90.30;100785.22;5032643;28;20050;-77
2022/01/02 11:06:05;;;;;;;1.58;1.52;;;;;;;-14.19;89.95;100787.16;5032008;28;20059;-77
2022/01/02 11:08:35;;;;;;;2.22;1.77;;;;;;;-14.23;90.37;100772.78;5031526;28;20045;-76
2022/01/02 11:11:03;;;;;;;3.72;2.13;;;;;;;-14.28;89.67;100770.06;5032322;28;20049;-78
2022/01/02 11:13:31;;;;;;;1.83;1.70;;;;;;;-14.36;90.42;100757.22;5032204;28;20045;-74
2022/01/02 11:16:00;;;;;;;1.80;1.70;;;;;;;-14.37;90.56;100754.69;5032061;28;20049;-76
2022/01/02 11:18:30;;;;;;;7.57;2.20;;;;;;;-14.22;90.17;100749.50;5032015;28;20045;-77
2022/01/02 11:20:57;;;;;;;2.17;1.98;;;;;;;-14.25;90.05;100745.22;5031869;28;20049;-77
2022/01/02 11:23:28;;;;;;;1.13;0.95;;;;;;;-14.07;89.61;100741.03;5032083;28;20427;-77
2022/01/02 11:26:08;;;;;;;1.63;1.40;;;;;;;-14.01;89.95;100740.44;5032155;28;20046;-77
2022/01/02 11:28:39;;;;;;;1.23;1.20;;;;;;;-14.10;89.83;100740.03;5031900;28;20049;-76
2022/01/02 11:31:09;;;;;;;2.75;2.35;;;;;;;-14.14;89.17;100733.19;5031812;28;20073;-77